Time;durP1;ratioP1;P1;durP2;ratioP2;P2;SDS_P1;SDS_P2;PMS_P1;PMS_P2;Temp;Humidity;BMP_temperature;BMP_pressure;BME280_temperature;BME280_humidity;BME280_pressure;Samples;Min_cycle;Max_cycle;Signal;HPM_P1;HPM_P2
2022/11/27 00:01:30;;;;;;;33.05;19.15;;;2.30;99.90;;;;;;5073664;28;20191;-67
2022/11/27 00:03:58;;;;;;;31.60;18.00;;;2.20;99.90;;;;;;5071843;28;20215;-66
2022/11/27 00:06:27;;;;;;;22.95;16.52;;;2.10;99.90;;;;;;5074423;28;20556;-65
2022/11/27 00:08:56;;;;;;;23.75;16.05;;;2.10;99.90;;;;;;5074009;28;20211;-66
2022/11/27 00:11:28;;;;;;;23.58;16.77;;;2.20;99.90;;;;;;5073725;28;20253;-66
2022/11/27 00:13:56;;;;;;;24.95;16.77;;;2.30;99.90;;;;;;5074146;28;20538;-66
2022/11/27 00:16:25;;;;;;;27.23;17.42;;;2.30;99.90;;;;;;5074693;28;20551;-66
2022/11/27 00:18:54;;;;;;;27.77;16.95;;;2.30;99.90;;;;;;5074765;28;20200;-67
2022/11/27 00:21:23;;;;;;;26.55;15.40;;;2.30;99.90;;;;;;5074677;28;20254;-67
2022/11/27 00:23:53;;;;;;;37.28;17.38;;;2.30;99.90;;;;;;5066715;28;20201;-66
2022/11/27 00:26:22;;;;;;;46.03;17.77;;;2.30;99.90;;;;;;5054519;28;20211;-66
2022/11/27 00:28:51;;;;;;;41.65;17.67;;;2.20;99.90;;;;;;5053411;28;20228;-67
2022/11/27 00:31:21;;;;;;;64.80;18.67;;;2.20;99.90;;;;;;5057782;28;20200;-66
2022/11/27 00:33:49;;;;;;;51.05;21.08;;;2.20;99.90;;;;;;5067606;28;20266;-66
2022/11/27 00:36:17;;;;;;;49.30;19.33;;;2.20;99.90;;;;;;5073961;28;20634;-66
2022/11/27 00:38:45;;;;;;;50.88;19.23;;;2.20;99.90;;;;;;5053824;28;20611;-67
2022/11/27 00:41:17;;;;;;;71.78;20.92;;;2.20;99.90;;;;;;5053088;28;20193;-66
2022/11/27 00:43:45;;;;;;;56.00;20.20;;;2.20;99.90;;;;;;5053611;28;20558;-66
2022/11/27 00:46:15;;;;;;;48.70;20.42;;;2.30;99.90;;;;;;5053283;28;20312;-66
2022/11/27 00:48:44;;;;;;;133.75;22.05;;;2.40;99.90;;;;;;5070148;28;20250;-66
2022/11/27 00:51:15;;;;;;;89.68;22.95;;;2.40;99.90;;;;;;5072764;28;20207;-66
2022/11/27 00:53:43;;;;;;;124.57;24.38;;;2.40;99.90;;;;;;5073346;28;20188;-66
2022/11/27 00:56:15;;;;;;;96.68;22.88;;;2.40;99.90;;;;;;5073029;28;20277;-67
2022/11/27 00:58:43;;;;;;;48.65;21.00;;;2.40;99.90;;;;;;5072327;28;20191;-66
2022/11/27 01:01:18;;;;;;;90.18;23.52;;;2.50;99.90;;;;;;5064847;28;20656;-66
2022/11/27 01:03:47;;;;;;;87.00;24.88;;;2.60;99.90;;;;;;5052585;28;20219;-66
2022/11/27 01:06:16;;;;;;;107.95;23.63;;;2.70;99.90;;;;;;5067525;28;20603;-66
2022/11/27 01:08:44;;;;;;;95.55;24.92;;;2.70;99.90;;;;;;5072906;28;20220;-65
2022/11/27 01:11:15;;;;;;;101.10;25.67;;;2.70;99.90;;;;;;5059747;28;20216;-65
2022/11/27 01:13:43;;;;;;;57.97;22.90;;;2.80;99.90;;;;;;5073313;28;20654;-66
2022/11/27 01:16:13;;;;;;;93.55;25.17;;;2.90;99.90;;;;;;5063506;28;20269;-65
2022/11/27 01:18:44;;;;;;;106.65;26.38;;;3.00;99.90;;;;;;5052900;28;20196;-65
2022/11/27 01:21:13;;;;;;;161.32;22.95;;;3.00;99.90;;;;;;5053608;28;20234;-65
2022/11/27 01:23:41;;;;;;;290.45;28.23;;;3.10;99.90;;;;;;5053176;28;20208;-66
2022/11/27 01:26:10;;;;;;;193.70;24.13;;;3.10;99.90;;;;;;5055288;28;20212;-65
2022/11/27 01:28:39;;;;;;;196.68;20.77;;;3.00;99.90;;;;;;5072418;28;20235;-66
2022/11/27 01:31:09;;;;;;;212.40;22.80;;;2.90;99.90;;;;;;5073573;28;20214;-66
2022/11/27 01:33:37;;;;;;;241.63;21.95;;;2.90;99.90;;;;;;5072853;28;20195;-66
2022/11/27 01:36:08;;;;;;;72.75;17.00;;;2.90;99.90;;;;;;5074197;28;20647;-66
2022/11/27 01:38:36;;;;;;;219.07;21.02;;;2.90;99.90;;;;;;5073284;28;20185;-66
2022/11/27 01:41:06;;;;;;;221.93;22.77;;;2.90;99.90;;;;;;5073872;28;20200;-66
2022/11/27 01:43:40;;;;;;;197.80;24.30;;;2.90;99.90;;;;;;5073657;28;20188;-66
2022/11/27 01:46:28;;;;;;;197.70;20.98;;;2.80;99.90;;;;;;5074053;28;20200;-66
2022/11/27 01:49:00;;;;;;;215.20;23.48;;;2.90;99.90;;;;;;5073316;28;20208;-66
2022/11/27 01:51:31;;;;;;;242.10;22.40;;;2.80;99.90;;;;;;5072848;28;20195;-66
2022/11/27 01:53:59;;;;;;;197.25;21.35;;;2.80;99.90;;;;;;5071045;28;20192;-66
2022/11/27 01:56:28;;;;;;;147.55;21.35;;;2.80;99.90;;;;;;5073094;28;20210;-66
2022/11/27 01:58:59;;;;;;;164.90;20.15;;;2.70;99.90;;;;;;5071896;28;20204;-66
2022/11/27 02:01:26;;;;;;;214.60;21.73;;;2.70;99.90;;;;;;5072307;28;20208;-66
2022/11/27 02:03:57;;;;;;;162.07;20.55;;;2.80;99.90;;;;;;5068555;28;20574;-65
2022/11/27 02:06:25;;;;;;;191.52;20.90;;;2.80;99.90;;;;;;5052166;28;20215;-65
2022/11/27 02:08:55;;;;;;;155.80;18.40;;;2.80;99.90;;;;;;5055870;28;20586;-65
2022/11/27 02:11:31;;;;;;;166.27;19.75;;;2.80;99.90;;;;;;5067414;28;20701;-65
2022/11/27 02:14:08;;;;;;;126.18;19.75;;;2.80;99.90;;;;;;5068015;28;20192;-66
2022/11/27 02:16:43;;;;;;;163.52;20.70;;;2.80;99.90;;;;;;5058276;28;20204;-65
2022/11/27 02:19:25;;;;;;;180.50;20.45;;;2.80;99.90;;;;;;5072607;28;20211;-65
2022/11/27 02:21:58;;;;;;;120.05;20.55;;;2.70;99.90;;;;;;5067204;28;20207;-65
2022/11/27 02:24:44;;;;;;;131.60;17.08;;;2.70;99.90;;;;;;5075174;28;20188;-66
2022/11/27 02:27:27;;;;;;;130.95;19.85;;;2.70;99.90;;;;;;5068828;28;20204;-65
2022/11/27 02:30:01;;;;;;;83.65;16.55;;;2.70;99.90;;;;;;5056384;28;20228;-65
2022/11/27 02:32:35;;;;;;;135.10;19.67;;;2.70;99.90;;;;;;5056016;28;20211;-65
2022/11/27 02:35:09;;;;;;;119.00;16.75;;;2.70;99.90;;;;;;5056503;28;20180;-65
2022/11/27 02:37:44;;;;;;;83.22;18.90;;;2.70;99.90;;;;;;5055833;28;20188;-66
2022/11/27 02:40:17;;;;;;;114.93;17.52;;;2.70;99.90;;;;;;5064317;28;20531;-66
2022/11/27 02:42:50;;;;;;;97.45;19.05;;;2.70;99.90;;;;;;5075315;28;20184;-66
2022/11/27 02:45:24;;;;;;;73.30;16.23;;;2.60;99.90;;;;;;5076032;28;20658;-66
2022/11/27 02:47:52;;;;;;;98.80;16.85;;;2.60;99.90;;;;;;5076205;28;20206;-67
2022/11/27 02:50:36;;;;;;;79.63;16.10;;;2.50;99.90;;;;;;5076692;28;20200;-67
2022/11/27 02:53:37;;;;;;;88.43;15.10;;;2.60;99.90;;;;;;5076088;28;20207;-66
2022/11/27 02:56:10;;;;;;;91.72;16.23;;;2.60;99.90;;;;;;5077857;28;20192;-67
2022/11/27 02:58:40;;;;;;;67.85;15.60;;;2.60;99.90;;;;;;5074984;28;20185;-66
2022/11/27 03:01:20;;;;;;;70.95;16.70;;;2.50;99.90;;;;;;5075210;28;20191;-66
2022/11/27 03:03:52;;;;;;;118.82;16.42;;;2.60;99.90;;;;;;5074915;28;20506;-67
2022/11/27 03:06:25;;;;;;;91.60;15.63;;;2.60;99.90;;;;;;5074476;28;20195;-67
2022/11/27 03:08:58;;;;;;;93.22;17.25;;;2.60;99.90;;;;;;5075498;28;20234;-66
2022/11/27 03:11:29;;;;;;;104.97;16.67;;;2.60;99.90;;;;;;5075573;28;20249;-67
2022/11/27 03:14:01;;;;;;;163.18;19.85;;;2.70;99.90;;;;;;5069944;28;20593;-67
2022/11/27 03:16:38;;;;;;;156.00;18.15;;;2.70;99.90;;;;;;5068282;28;20200;-68
2022/11/27 03:19:14;;;;;;;148.88;17.10;;;2.80;99.90;;;;;;5072674;28;20685;-66
2022/11/27 03:21:46;;;;;;;129.40;16.63;;;2.70;99.90;;;;;;5054928;28;20569;-66
2022/11/27 03:24:14;;;;;;;84.95;14.98;;;2.70;99.90;;;;;;5054363;28;20287;-67
2022/11/27 03:26:42;;;;;;;126.90;16.70;;;2.80;99.90;;;;;;5058414;28;20550;-67
2022/11/27 03:29:13;;;;;;;137.40;17.30;;;2.80;99.90;;;;;;5074417;28;20239;-66
2022/11/27 03:31:43;;;;;;;84.63;16.17;;;2.80;99.90;;;;;;5056430;28;20185;-66
2022/11/27 03:34:12;;;;;;;61.63;14.57;;;2.80;99.90;;;;;;5074108;28;20581;-66
2022/11/27 03:36:39;;;;;;;147.43;19.25;;;2.90;99.90;;;;;;5074686;28;20816;-66
2022/11/27 03:39:08;;;;;;;116.20;16.73;;;2.90;99.90;;;;;;5059986;28;20575;-66
2022/11/27 03:41:45;;;;;;;86.57;16.60;;;2.90;99.90;;;;;;5055242;28;20210;-67
2022/11/27 03:44:25;;;;;;;95.55;16.80;;;2.80;99.90;;;;;;5055203;28;20184;-66
2022/11/27 03:47:05;;;;;;;91.75;17.52;;;2.80;99.90;;;;;;5054515;28;20241;-66
2022/11/27 03:49:44;;;;;;;66.88;14.90;;;2.90;99.90;;;;;;5055801;28;20204;-66
2022/11/27 03:52:18;;;;;;;66.45;17.27;;;3.00;99.90;;;;;;5074267;28;20192;-66
2022/11/27 03:54:55;;;;;;;52.97;17.83;;;3.00;99.90;;;;;;5074676;28;20200;-66
2022/11/27 03:57:33;;;;;;;73.22;16.42;;;3.10;99.90;;;;;;5074888;28;20192;-66
2022/11/27 04:00:04;;;;;;;59.20;14.48;;;3.10;99.90;;;;;;5075059;28;20184;-66
2022/11/27 04:02:42;;;;;;;81.78;14.68;;;3.00;99.90;;;;;;5057754;28;20200;-66
2022/11/27 04:05:10;;;;;;;72.85;16.98;;;3.00;99.90;;;;;;5059598;28;20212;-66
2022/11/27 04:07:38;;;;;;;57.55;16.25;;;3.00;99.90;;;;;;5054702;28;20275;-67
2022/11/27 04:10:08;;;;;;;64.15;14.45;;;2.90;99.90;;;;;;5055278;28;20227;-66
2022/11/27 04:12:50;;;;;;;61.63;15.23;;;2.90;99.90;;;;;;5053011;28;20690;-67
2022/11/27 04:15:28;;;;;;;68.85;16.35;;;2.90;99.90;;;;;;5057594;28;20264;-66
2022/11/27 04:18:16;;;;;;;67.25;14.02;;;2.90;99.90;;;;;;5054462;28;20285;-66
2022/11/27 04:20:51;;;;;;;60.22;15.25;;;3.00;99.90;;;;;;5056117;28;20567;-66
2022/11/27 04:23:38;;;;;;;53.33;14.73;;;3.00;99.90;;;;;;5057164;28;20196;-66
2022/11/27 04:26:06;;;;;;;50.38;15.93;;;2.80;99.90;;;;;;5054862;28;20212;-66
2022/11/27 04:28:34;;;;;;;63.47;15.27;;;2.80;99.90;;;;;;5054099;28;20243;-66
2022/11/27 04:31:02;;;;;;;34.97;13.80;;;2.80;99.90;;;;;;5054056;28;20208;-66
2022/11/27 04:33:31;;;;;;;50.80;14.82;;;2.80;99.90;;;;;;5055311;28;20208;-65
2022/11/27 04:35:59;;;;;;;29.42;13.68;;;2.90;99.90;;;;;;5054336;28;20204;-66
2022/11/27 04:38:27;;;;;;;47.92;14.55;;;2.90;99.90;;;;;;5053540;28;20543;-66
2022/11/27 04:40:56;;;;;;;40.35;18.10;;;3.00;99.90;;;;;;5055308;28;20200;-66
2022/11/27 04:43:24;;;;;;;40.75;14.63;;;2.90;99.90;;;;;;5074657;28;20215;-66
2022/11/27 04:45:52;;;;;;;37.53;12.63;;;2.90;99.90;;;;;;5073849;28;20210;-66
2022/11/27 04:48:20;;;;;;;45.83;14.45;;;2.90;99.90;;;;;;5073120;28;20271;-66
2022/11/27 04:50:49;;;;;;;45.50;15.27;;;2.90;99.90;;;;;;5073786;28;20261;-66
2022/11/27 04:53:17;;;;;;;46.63;14.63;;;2.80;99.90;;;;;;5074380;28;20203;-66
2022/11/27 04:55:45;;;;;;;52.33;14.15;;;2.70;99.90;;;;;;5074306;28;20227;-66
2022/11/27 04:58:13;;;;;;;45.03;15.15;;;2.70;99.90;;;;;;5072854;28;20207;-66
2022/11/27 05:00:41;;;;;;;36.28;12.07;;;2.70;99.90;;;;;;5073450;28;20541;-66
2022/11/27 05:03:09;;;;;;;47.95;12.98;;;2.70;99.90;;;;;;5072998;28;20199;-66
2022/11/27 05:05:37;;;;;;;47.20;13.88;;;2.70;99.90;;;;;;5072359;28;20299;-66
2022/11/27 05:08:06;;;;;;;50.00;13.20;;;2.70;99.90;;;;;;5073969;28;20554;-66
2022/11/27 05:10:34;;;;;;;67.30;12.75;;;2.70;99.90;;;;;;5073001;28;20420;-66
2022/11/27 05:13:02;;;;;;;27.05;11.50;;;2.70;99.90;;;;;;5073608;28;20589;-66
2022/11/27 05:15:30;;;;;;;50.53;13.50;;;2.80;99.90;;;;;;5071774;28;20203;-66
2022/11/27 05:17:58;;;;;;;38.10;13.10;;;2.80;99.90;;;;;;5073522;28;20273;-66
2022/11/27 05:20:26;;;;;;;36.35;13.27;;;2.90;99.90;;;;;;5073073;28;20196;-66
2022/11/27 05:22:54;;;;;;;47.75;13.52;;;2.90;99.90;;;;;;5072109;28;20203;-66
2022/11/27 05:25:23;;;;;;;41.80;13.07;;;3.00;99.90;;;;;;5073186;28;20212;-66
2022/11/27 05:27:51;;;;;;;51.75;13.25;;;3.10;99.90;;;;;;5065922;28;20208;-67
2022/11/27 05:30:19;;;;;;;40.08;14.05;;;3.10;99.90;;;;;;5056203;28;20208;-65
2022/11/27 05:32:47;;;;;;;39.67;12.52;;;3.20;99.90;;;;;;5065364;28;20195;-66
2022/11/27 05:35:15;;;;;;;34.55;12.32;;;3.00;99.90;;;;;;5052714;28;20563;-66
2022/11/27 05:37:43;;;;;;;41.55;12.68;;;2.90;99.90;;;;;;5060629;28;20245;-66
2022/11/27 05:40:11;;;;;;;36.30;14.80;;;2.90;99.90;;;;;;5062286;28;20667;-66
2022/11/27 05:42:41;;;;;;;30.05;13.13;;;3.00;99.90;;;;;;5053414;28;20201;-66
2022/11/27 05:45:10;;;;;;;36.25;13.98;;;2.90;99.90;;;;;;5052770;28;20659;-66
2022/11/27 05:47:38;;;;;;;38.97;18.85;;;2.90;99.90;;;;;;5056805;28;20192;-66
2022/11/27 05:50:07;;;;;;;26.58;12.82;;;3.00;99.90;;;;;;5072544;28;20204;-66
2022/11/27 05:52:54;;;;;;;36.08;13.75;;;3.00;99.90;;;;;;5069466;28;20196;-66
2022/11/27 05:55:45;;;;;;;29.13;13.05;;;3.10;99.90;;;;;;5069694;28;20563;-67
2022/11/27 05:58:34;;;;;;;38.72;13.43;;;3.00;99.90;;;;;;5071437;28;20570;-67
2022/11/27 06:01:11;;;;;;;40.72;13.80;;;3.10;99.90;;;;;;5063585;28;20202;-67
2022/11/27 06:03:39;;;;;;;37.22;13.05;;;3.10;99.90;;;;;;5071624;28;20196;-67
2022/11/27 06:06:07;;;;;;;31.25;12.55;;;3.10;99.90;;;;;;5053930;28;20212;-67
2022/11/27 06:08:36;;;;;;;38.80;14.15;;;3.10;99.90;;;;;;5066770;28;20196;-66
2022/11/27 06:11:08;;;;;;;41.47;14.55;;;3.20;99.90;;;;;;5054362;28;20224;-66
2022/11/27 06:13:37;;;;;;;25.42;13.00;;;3.20;99.90;;;;;;5051732;28;20196;-66
2022/11/27 06:16:07;;;;;;;36.38;14.05;;;3.20;99.90;;;;;;5052537;28;20201;-66
2022/11/27 06:18:35;;;;;;;25.98;13.18;;;3.10;99.90;;;;;;5052449;28;20204;-66
2022/11/27 06:21:07;;;;;;;29.05;14.13;;;3.10;99.90;;;;;;5052035;28;20197;-66
2022/11/27 06:23:35;;;;;;;32.10;14.20;;;3.10;99.90;;;;;;5052588;28;20196;-66
2022/11/27 06:26:14;;;;;;;35.95;14.93;;;3.10;99.90;;;;;;5051334;28;20204;-66
2022/11/27 06:28:43;;;;;;;39.55;16.23;;;3.10;99.90;;;;;;5061815;28;20236;-65
2022/11/27 06:31:13;;;;;;;40.28;17.40;;;3.20;99.90;;;;;;5051517;28;20228;-67
2022/11/27 06:33:41;;;;;;;32.70;17.08;;;3.10;99.90;;;;;;5051933;28;20211;-67
2022/11/27 06:36:15;;;;;;;24.75;13.35;;;3.10;99.90;;;;;;5050979;28;20208;-66
2022/11/27 06:39:36;;;;;;;35.58;14.82;;;3.00;99.90;;;;;;5060827;28;20270;-66
2022/11/27 06:42:20;;;;;;;33.55;15.32;;;3.10;99.90;;;;;;5060646;28;20272;-67
2022/11/27 06:44:49;;;;;;;23.98;12.20;;;3.10;99.90;;;;;;5061859;28;20185;-67
2022/11/27 06:47:17;;;;;;;29.77;12.32;;;3.10;99.90;;;;;;5060242;28;20958;-67
2022/11/27 06:49:45;;;;;;;34.80;15.52;;;3.10;99.90;;;;;;5058870;28;20193;-67
2022/11/27 06:52:12;;;;;;;27.45;13.82;;;3.10;99.90;;;;;;5061174;28;20214;-67
2022/11/27 06:54:40;;;;;;;26.63;12.25;;;3.20;99.90;;;;;;5063829;28;20208;-67
2022/11/27 06:57:08;;;;;;;24.25;12.32;;;3.10;99.90;;;;;;5065221;28;20204;-67
2022/11/27 06:59:36;;;;;;;25.67;13.25;;;3.10;99.90;;;;;;5066219;28;20265;-67
2022/11/27 07:02:05;;;;;;;30.15;12.85;;;3.10;99.90;;;;;;5062047;28;20682;-67
2022/11/27 07:04:33;;;;;;;33.45;14.07;;;3.10;99.90;;;;;;5065028;28;20192;-67
2022/11/27 07:07:01;;;;;;;23.50;11.95;;;3.10;99.90;;;;;;5064357;28;20193;-67
2022/11/27 07:09:29;;;;;;;22.38;11.88;;;3.10;99.90;;;;;;5066611;28;20211;-67
2022/11/27 07:11:57;;;;;;;21.48;12.38;;;3.10;99.90;;;;;;5063635;28;20219;-67
2022/11/27 07:14:25;;;;;;;28.70;14.90;;;3.20;99.90;;;;;;5063021;28;20204;-67
2022/11/27 07:16:53;;;;;;;31.85;16.27;;;3.20;99.90;;;;;;5065659;28;20201;-67
2022/11/27 07:19:22;;;;;;;20.75;12.82;;;3.30;99.90;;;;;;5060932;28;20207;-67
2022/11/27 07:21:50;;;;;;;25.00;14.23;;;3.30;99.90;;;;;;5064896;28;20195;-67
2022/11/27 07:24:19;;;;;;;23.52;13.50;;;3.30;99.90;;;;;;5057965;28;20602;-67
2022/11/27 07:26:47;;;;;;;30.77;14.15;;;3.30;99.90;;;;;;5075663;28;20195;-67
2022/11/27 07:29:14;;;;;;;28.00;14.18;;;3.30;99.90;;;;;;5095149;28;20238;-67
2022/11/27 07:35:26;;;;;;;19.38;11.85;;;3.40;99.90;;;;;;5075992;28;20210;-67
2022/11/27 07:38:19;;;;;;;19.63;11.75;;;3.50;99.90;;;;;;5075277;28;20587;-66
2022/11/27 07:40:46;;;;;;;27.05;13.18;;;3.40;99.90;;;;;;5074927;28;20196;-66
2022/11/27 07:43:14;;;;;;;18.52;12.68;;;3.40;99.90;;;;;;5074127;28;20211;-66
2022/11/27 07:45:42;;;;;;;21.13;12.80;;;3.50;99.90;;;;;;5074881;28;20192;-66
2022/11/27 07:48:10;;;;;;;18.05;11.27;;;3.60;99.90;;;;;;5077162;28;20193;-65
2022/11/27 07:50:40;;;;;;;18.17;11.88;;;3.60;99.90;;;;;;5063643;28;20221;-66
2022/11/27 07:53:08;;;;;;;21.90;12.23;;;3.50;99.90;;;;;;5073274;28;20557;-65
2022/11/27 07:55:38;;;;;;;25.15;12.93;;;3.50;99.90;;;;;;5068916;28;20207;-66
2022/11/27 07:58:06;;;;;;;26.30;13.80;;;3.50;99.90;;;;;;5065804;28;20208;-66
2022/11/27 08:00:35;;;;;;;25.13;14.77;;;3.60;99.90;;;;;;5055610;28;20189;-66
2022/11/27 08:03:03;;;;;;;22.63;13.68;;;3.50;99.90;;;;;;5063377;28;20207;-66
2022/11/27 08:05:34;;;;;;;25.98;15.25;;;3.50;99.90;;;;;;5067620;28;20197;-66
2022/11/27 08:08:04;;;;;;;24.00;13.70;;;3.60;99.90;;;;;;5057737;28;20642;-67
2022/11/27 08:10:35;;;;;;;22.42;11.95;;;3.60;99.90;;;;;;5055845;28;20579;-66
2022/11/27 08:13:03;;;;;;;25.00;12.63;;;3.50;99.90;;;;;;5062059;28;20192;-66
2022/11/27 08:15:32;;;;;;;19.48;11.23;;;3.60;99.90;;;;;;5054103;28;20867;-67
2022/11/27 08:18:00;;;;;;;22.50;11.75;;;3.50;99.90;;;;;;5059073;28;20193;-67
2022/11/27 08:20:27;;;;;;;24.80;13.75;;;3.60;99.90;;;;;;5053979;28;20197;-65
2022/11/27 08:22:55;;;;;;;27.85;13.38;;;3.60;99.90;;;;;;5057704;28;20204;-65
2022/11/27 08:25:25;;;;;;;25.02;12.68;;;3.70;99.90;;;;;;5074459;28;20206;-65
2022/11/27 08:27:53;;;;;;;20.58;12.35;;;3.70;99.90;;;;;;5068083;28;20193;-66
2022/11/27 08:30:22;;;;;;;18.48;11.98;;;3.70;99.90;;;;;;5052052;28;20213;-66
2022/11/27 08:32:50;;;;;;;38.03;20.40;;;3.60;99.90;;;;;;5057084;28;20212;-66
2022/11/27 08:35:18;;;;;;;31.58;16.17;;;3.70;99.90;;;;;;5063597;28;20701;-66
2022/11/27 08:37:46;;;;;;;28.52;15.00;;;3.80;99.90;;;;;;5072703;28;20199;-66
2022/11/27 08:40:14;;;;;;;25.75;14.00;;;3.80;99.90;;;;;;5071987;28;20200;-65
2022/11/27 08:42:46;;;;;;;26.85;13.77;;;3.90;99.90;;;;;;5068426;28;20195;-66
2022/11/27 08:45:14;;;;;;;26.75;15.50;;;3.90;99.90;;;;;;5074634;28;20212;-66
2022/11/27 08:47:42;;;;;;;56.38;28.50;;;3.90;99.90;;;;;;5056978;28;20593;-66
2022/11/27 08:50:11;;;;;;;40.53;20.60;;;3.90;99.90;;;;;;5068986;28;20196;-68
2022/11/27 08:52:39;;;;;;;23.30;14.80;;;3.80;99.90;;;;;;5053406;28;20245;-67
2022/11/27 08:55:08;;;;;;;22.40;13.35;;;3.80;99.90;;;;;;5053102;28;20630;-66
2022/11/27 08:57:36;;;;;;;18.85;12.25;;;3.90;99.90;;;;;;5057566;28;20564;-66
2022/11/27 09:00:07;;;;;;;20.80;13.70;;;3.80;99.90;;;;;;5054764;28;20209;-65
2022/11/27 09:02:36;;;;;;;16.90;12.05;;;4.00;99.90;;;;;;5062447;28;20203;-66
2022/11/27 09:05:05;;;;;;;21.90;12.32;;;4.00;99.90;;;;;;5066599;28;20204;-66
2022/11/27 09:07:33;;;;;;;20.98;11.48;;;4.00;99.90;;;;;;5058506;28;20199;-66
2022/11/27 09:10:01;;;;;;;25.20;15.02;;;4.00;99.90;;;;;;5057299;28;20211;-66
2022/11/27 09:12:30;;;;;;;32.55;19.92;;;4.00;99.90;;;;;;5064931;28;20223;-66
2022/11/27 09:14:57;;;;;;;40.65;24.13;;;4.00;99.90;;;;;;5059753;28;20221;-66
2022/11/27 09:17:27;;;;;;;27.40;17.50;;;4.00;99.90;;;;;;5058177;28;20207;-66
2022/11/27 09:19:55;;;;;;;27.85;17.30;;;4.00;99.90;;;;;;5055628;28;20204;-66
2022/11/27 09:22:23;;;;;;;23.17;16.20;;;4.10;99.90;;;;;;5061630;28;20200;-67
2022/11/27 09:24:50;;;;;;;29.48;17.10;;;4.20;99.90;;;;;;5057027;28;20555;-67
2022/11/27 09:27:18;;;;;;;24.48;16.88;;;4.30;99.90;;;;;;5054095;28;20258;-66
2022/11/27 09:29:46;;;;;;;25.17;16.40;;;4.40;99.90;;;;;;5060627;28;20221;-66
2022/11/27 09:32:15;;;;;;;27.92;16.48;;;4.40;99.90;;;;;;5061357;28;20229;-66
2022/11/27 09:34:44;;;;;;;26.35;17.13;;;4.50;99.90;;;;;;5057797;28;20667;-66
2022/11/27 09:37:12;;;;;;;31.23;17.73;;;4.50;99.90;;;;;;5053922;28;20690;-65
2022/11/27 09:39:40;;;;;;;28.58;17.42;;;4.60;99.90;;;;;;5071299;28;20681;-66
2022/11/27 09:42:17;;;;;;;25.35;16.20;;;4.60;99.90;;;;;;5069224;28;20207;-66
2022/11/27 09:45:24;;;;;;;27.05;15.73;;;4.60;99.90;;;;;;5054514;28;20196;-66
2022/11/27 09:48:31;;;;;;;28.08;17.40;;;4.40;99.90;;;;;;5054699;28;20250;-66
2022/11/27 09:51:13;;;;;;;24.33;14.68;;;4.60;99.90;;;;;;5059155;28;20196;-64
2022/11/27 09:53:47;;;;;;;24.52;16.38;;;4.70;99.90;;;;;;5063444;28;20189;-65
2022/11/27 09:56:17;;;;;;;23.35;14.45;;;4.60;99.90;;;;;;5071619;28;20196;-65
2022/11/27 09:58:49;;;;;;;24.55;15.52;;;4.70;99.90;;;;;;5062759;28;20239;-65
2022/11/27 10:01:22;;;;;;;25.15;16.30;;;4.70;99.90;;;;;;5051069;28;20185;-65
2022/11/27 10:03:50;;;;;;;25.67;14.85;;;4.50;99.90;;;;;;5050878;28;20200;-64
2022/11/27 10:06:28;;;;;;;28.05;16.73;;;4.50;99.90;;;;;;5055543;28;20200;-66
2022/11/27 10:09:08;;;;;;;31.77;18.77;;;4.50;99.90;;;;;;5067530;28;20195;-65
2022/11/27 10:11:45;;;;;;;29.88;15.88;;;4.50;99.90;;;;;;5072093;28;20223;-65
2022/11/27 10:14:30;;;;;;;24.77;15.82;;;4.40;99.90;;;;;;5057974;28;20199;-65
2022/11/27 10:17:05;;;;;;;22.92;15.38;;;4.50;99.90;;;;;;5052390;28;20193;-66
2022/11/27 10:19:38;;;;;;;20.90;14.85;;;4.50;99.90;;;;;;5055041;28;20184;-65
2022/11/27 10:22:14;;;;;;;21.92;14.75;;;4.50;99.90;;;;;;5063931;28;20199;-65
2022/11/27 10:24:51;;;;;;;17.38;13.13;;;4.50;99.90;;;;;;5065048;28;20211;-65
2022/11/27 10:27:23;;;;;;;16.80;11.82;;;4.70;99.90;;;;;;5059997;28;20192;-63
2022/11/27 10:29:55;;;;;;;14.70;11.55;;;4.70;99.90;;;;;;5075868;28;20232;-65
2022/11/27 10:32:26;;;;;;;16.48;12.55;;;4.70;99.90;;;;;;5064496;28;20556;-66
2022/11/27 10:34:59;;;;;;;18.35;13.80;;;4.70;99.90;;;;;;5054840;28;20197;-66
2022/11/27 10:37:33;;;;;;;18.63;13.00;;;4.50;99.90;;;;;;5062657;28;20185;-66
2022/11/27 10:40:05;;;;;;;21.35;14.02;;;4.40;99.90;;;;;;5066911;28;20194;-66
2022/11/27 10:42:37;;;;;;;27.75;15.60;;;4.40;99.90;;;;;;5075687;28;20210;-66
2022/11/27 10:45:08;;;;;;;22.42;15.77;;;4.60;99.90;;;;;;5069073;28;20188;-66
2022/11/27 10:47:40;;;;;;;23.40;16.10;;;4.60;99.90;;;;;;5075875;28;20204;-65
2022/11/27 10:50:14;;;;;;;30.15;15.70;;;4.70;99.90;;;;;;5074407;28;20202;-66
2022/11/27 10:52:54;;;;;;;21.20;14.50;;;4.80;99.90;;;;;;5075187;28;20624;-66
2022/11/27 10:55:37;;;;;;;18.00;12.50;;;4.90;99.90;;;;;;5076179;28;20662;-66
2022/11/27 10:58:14;;;;;;;25.08;15.57;;;4.60;99.90;;;;;;5081034;28;20195;-67
2022/11/27 11:00:41;;;;;;;19.10;13.75;;;4.70;99.90;;;;;;5055914;28;20200;-66
2022/11/27 11:03:17;;;;;;;18.08;12.63;;;4.60;99.90;;;;;;5056427;28;20208;-67
2022/11/27 11:05:57;;;;;;;16.77;11.57;;;4.60;99.90;;;;;;5057008;28;20188;-65
2022/11/27 11:08:27;;;;;;;14.55;11.40;;;4.60;99.90;;;;;;5069745;28;20282;-66
2022/11/27 11:11:00;;;;;;;16.92;11.65;;;4.60;99.90;;;;;;5076754;28;20545;-65
2022/11/27 11:13:29;;;;;;;19.08;13.40;;;4.50;99.90;;;;;;5056484;28;20567;-66
2022/11/27 11:16:03;;;;;;;18.20;12.18;;;4.60;99.90;;;;;;5057342;28;20211;-66
2022/11/27 11:18:33;;;;;;;14.50;12.48;;;4.70;99.90;;;;;;5068673;28;20195;-66
2022/11/27 11:21:04;;;;;;;27.05;13.52;;;4.90;99.90;;;;;;5071312;28;20196;-66
2022/11/27 11:23:35;;;;;;;15.20;11.02;;;5.00;99.90;;;;;;5071393;28;20580;-66
2022/11/27 11:26:08;;;;;;;15.13;11.57;;;4.90;99.90;;;;;;5060289;28;20252;-66
2022/11/27 11:28:48;;;;;;;14.10;12.60;;;4.80;99.90;;;;;;5075105;28;20235;-65
2022/11/27 11:31:19;;;;;;;14.77;10.73;;;4.60;99.90;;;;;;5057829;28;20196;-66
2022/11/27 11:33:52;;;;;;;13.43;10.90;;;4.70;99.90;;;;;;5055204;28;20208;-66
2022/11/27 11:36:20;;;;;;;14.90;11.02;;;4.70;99.90;;;;;;5057849;28;20565;-66
2022/11/27 11:38:50;;;;;;;18.70;13.00;;;4.60;99.90;;;;;;5065972;28;20195;-66
2022/11/27 11:41:19;;;;;;;15.88;11.85;;;4.70;99.90;;;;;;5065418;28;20207;-66
2022/11/27 11:43:56;;;;;;;12.68;10.60;;;4.70;99.90;;;;;;5063828;28;20577;-65
2022/11/27 11:46:27;;;;;;;15.57;10.52;;;4.70;99.90;;;;;;5065051;28;20663;-65
2022/11/27 11:49:01;;;;;;;14.43;11.20;;;4.70;99.90;;;;;;5067018;28;20207;-65
2022/11/27 11:51:40;;;;;;;15.70;10.43;;;4.90;99.90;;;;;;5062528;28;20193;-66
2022/11/27 11:54:21;;;;;;;15.02;11.35;;;4.90;99.90;;;;;;5065298;28;20208;-66
2022/11/27 11:56:52;;;;;;;16.63;11.80;;;4.90;99.90;;;;;;5055996;28;20181;-65
2022/11/27 11:59:26;;;;;;;15.02;12.48;;;4.70;99.90;;;;;;5055519;28;20192;-66
2022/11/27 12:02:06;;;;;;;17.67;11.73;;;4.80;99.90;;;;;;5071886;28;20208;-66
2022/11/27 12:05:05;;;;;;;16.63;11.70;;;4.80;99.90;;;;;;5073197;28;20188;-66
2022/11/27 12:07:46;;;;;;;19.42;12.15;;;5.00;99.90;;;;;;5070995;28;20204;-66
2022/11/27 12:10:24;;;;;;;18.65;12.10;;;5.00;99.90;;;;;;5070119;28;20196;-66
2022/11/27 12:13:04;;;;;;;20.27;13.10;;;5.00;99.90;;;;;;5055135;28;20231;-66
2022/11/27 12:15:36;;;;;;;26.92;14.80;;;5.10;99.90;;;;;;5056176;28;20208;-66
2022/11/27 12:18:10;;;;;;;22.17;14.43;;;5.20;99.90;;;;;;5073035;28;20565;-66
2022/11/27 12:20:51;;;;;;;19.55;12.38;;;5.30;99.90;;;;;;5067726;28;20187;-67
2022/11/27 12:23:38;;;;;;;15.60;11.80;;;5.40;99.90;;;;;;5055924;28;20199;-67
2022/11/27 12:26:17;;;;;;;14.60;10.32;;;5.30;99.90;;;;;;5058117;28;20196;-66
2022/11/27 12:29:07;;;;;;;14.65;10.95;;;5.30;99.90;;;;;;5054807;28;20232;-66
2022/11/27 12:31:50;;;;;;;14.50;10.60;;;5.00;99.90;;;;;;5061835;28;20203;-65
2022/11/27 12:34:27;;;;;;;22.73;12.10;;;5.10;99.90;;;;;;5057514;28;20258;-66
2022/11/27 12:37:15;;;;;;;17.77;12.93;;;5.10;99.90;;;;;;5059496;28;20212;-66
2022/11/27 12:39:59;;;;;;;24.73;13.57;;;5.10;99.90;;;;;;5072491;28;20241;-65
2022/11/27 12:42:35;;;;;;;24.40;12.70;;;5.20;99.90;;;;;;5073998;28;20195;-65
2022/11/27 12:45:11;;;;;;;15.43;11.75;;;5.20;99.90;;;;;;5068435;28;20196;-65
2022/11/27 12:47:42;;;;;;;16.45;11.43;;;4.90;99.90;;;;;;5073748;28;20201;-65
2022/11/27 12:50:17;;;;;;;14.30;10.80;;;5.10;99.90;;;;;;5074524;28;20195;-66
2022/11/27 12:52:54;;;;;;;16.85;12.35;;;5.20;99.90;;;;;;5073007;28;20207;-65
2022/11/27 12:55:27;;;;;;;16.02;11.45;;;5.00;99.90;;;;;;5076509;28;20183;-65
2022/11/27 12:58:09;;;;;;;17.95;11.70;;;5.00;99.90;;;;;;5074766;28;20721;-65
2022/11/27 13:00:40;;;;;;;22.40;15.18;;;5.10;99.90;;;;;;5074180;28;20253;-65
2022/11/27 13:03:15;;;;;;;16.92;12.23;;;5.20;99.90;;;;;;5073010;28;20214;-65
2022/11/27 13:05:49;;;;;;;19.45;14.73;;;5.30;99.90;;;;;;5073644;28;20206;-65